Time;durP1;ratioP1;P1;durP2;ratioP2;P2;SDS_P1;SDS_P2;PMS_P1;PMS_P2;Temp;Humidity;BMP_temperature;BMP_pressure;BME280_temperature;BME280_humidity;BME280_pressure;Samples;Min_cycle;Max_cycle;Signal;HPM_P1;HPM_P2
2023/08/09 00:00:07;;;;;;;1.37;0.67;;;16.40;99.90;;;;;;5016621;28;20959;-86
2023/08/09 00:02:33;;;;;;;2.63;0.90;;;16.40;99.90;;;;;;5016509;28;20475;-86
2023/08/09 00:05:00;;;;;;;0.60;0.60;;;16.40;99.90;;;;;;5016163;28;20460;-86
2023/08/09 00:07:27;;;;;;;0.60;0.60;;;16.40;99.90;;;;;;5016459;28;20451;-87
2023/08/09 00:09:54;;;;;;;0.73;0.60;;;16.40;99.90;;;;;;5016390;28;20456;-86
2023/08/09 00:12:20;;;;;;;0.70;0.60;;;16.40;99.90;;;;;;5016212;28;20483;-86
2023/08/09 00:14:48;;;;;;;1.90;0.90;;;16.30;99.90;;;;;;5016043;28;20459;-86
2023/08/09 00:17:15;;;;;;;0.80;0.80;;;16.30;99.90;;;;;;5016024;28;20933;-86
2023/08/09 00:19:42;;;;;;;1.00;0.60;;;16.30;99.90;;;;;;5016315;28;20840;-86
2023/08/09 00:22:09;;;;;;;0.93;0.77;;;16.30;99.90;;;;;;5016168;28;20439;-86
2023/08/09 00:24:36;;;;;;;0.80;0.50;;;16.30;99.90;;;;;;5015935;28;20886;-86
2023/08/09 00:27:02;;;;;;;2.30;0.70;;;16.30;99.90;;;;;;5016067;28;20813;-86
2023/08/09 00:29:29;;;;;;;1.03;0.70;;;16.30;99.90;;;;;;5016086;28;20451;-86
2023/08/09 00:31:57;;;;;;;1.20;0.90;;;16.30;99.90;;;;;;5016104;28;20490;-86
2023/08/09 00:34:24;;;;;;;10.93;0.60;;;16.30;99.90;;;;;;5016358;28;20475;-87
2023/08/09 00:36:51;;;;;;;1.00;0.70;;;16.30;99.90;;;;;;5015745;28;20479;-87
2023/08/09 00:39:19;;;;;;;4.67;0.87;;;16.30;99.90;;;;;;5016095;28;20882;-87
2023/08/09 00:41:46;;;;;;;2.63;0.90;;;16.20;99.90;;;;;;5016211;28;20539;-87
2023/08/09 00:44:13;;;;;;;2.20;0.80;;;16.20;99.90;;;;;;5015671;28;20471;-86
2023/08/09 00:46:39;;;;;;;1.63;0.53;;;16.10;99.90;;;;;;5015955;28;20793;-88
2023/08/09 00:49:08;;;;;;;0.67;0.57;;;16.10;99.90;;;;;;5015783;28;20455;-86
2023/08/09 00:51:35;;;;;;;1.00;0.80;;;16.00;99.90;;;;;;5015687;28;20502;-87
2023/08/09 00:54:02;;;;;;;1.30;0.93;;;16.00;99.90;;;;;;5015486;28;20464;-87
2023/08/09 00:56:29;;;;;;;1.60;0.87;;;16.10;99.90;;;;;;5015654;28;20451;-86
2023/08/09 00:58:55;;;;;;;0.50;0.50;;;16.10;99.90;;;;;;5015403;28;20452;-86
2023/08/09 01:01:22;;;;;;;0.97;0.70;;;16.00;99.90;;;;;;5015649;28;20455;-87
2023/08/09 01:03:49;;;;;;;1.00;0.80;;;16.00;99.90;;;;;;5015640;28;20463;-87
2023/08/09 01:06:26;;;;;;;0.70;0.70;;;15.90;99.90;;;;;;5015276;28;20941;-86
2023/08/09 01:09:02;;;;;;;1.20;0.90;;;15.90;99.90;;;;;;5014984;28;20427;-87
2023/08/09 01:11:36;;;;;;;0.70;0.53;;;15.90;99.90;;;;;;5015376;28;20446;-87
2023/08/09 01:14:06;;;;;;;0.50;0.50;;;15.90;99.90;;;;;;5015263;28;20460;-87
2023/08/09 01:16:34;;;;;;;1.70;0.80;;;15.90;99.90;;;;;;5015349;28;20442;-87
2023/08/09 01:19:02;;;;;;;0.87;0.73;;;15.90;99.90;;;;;;5015238;28;20451;-86
2023/08/09 01:21:32;;;;;;;1.03;0.93;;;15.90;99.90;;;;;;5014873;28;20428;-87
2023/08/09 01:24:01;;;;;;;0.60;0.60;;;15.90;99.90;;;;;;5015155;28;20514;-86
2023/08/09 01:26:27;;;;;;;0.70;0.60;;;15.90;99.90;;;;;;5015055;28;20415;-87
2023/08/09 01:28:54;;;;;;;0.80;0.80;;;15.90;99.90;;;;;;5014707;28;20441;-87
2023/08/09 01:31:21;;;;;;;0.60;0.60;;;15.80;99.90;;;;;;5014992;28;20443;-86
2023/08/09 01:33:48;;;;;;;1.70;0.67;;;15.80;99.90;;;;;;5015349;28;20483;-86
2023/08/09 01:36:22;;;;;;;1.00;0.70;;;15.90;99.90;;;;;;5014343;28;20475;-87
2023/08/09 01:38:56;;;;;;;1.27;0.63;;;15.90;99.90;;;;;;5014957;28;20432;-86
2023/08/09 01:41:24;;;;;;;1.90;0.97;;;15.90;99.90;;;;;;5014995;28;20428;-87
2023/08/09 01:43:52;;;;;;;0.70;0.70;;;15.80;99.90;;;;;;5014845;28;20463;-87
2023/08/09 01:46:19;;;;;;;0.83;0.60;;;15.90;99.90;;;;;;5014393;28;20451;-86
2023/08/09 01:48:46;;;;;;;0.80;0.60;;;15.90;99.90;;;;;;5014792;28;20451;-87
2023/08/09 01:51:13;;;;;;;0.80;0.73;;;15.90;99.90;;;;;;5014543;28;20519;-86
2023/08/09 01:53:40;;;;;;;2.23;0.97;;;15.90;99.90;;;;;;5014430;28;20856;-86
2023/08/09 01:56:06;;;;;;;1.80;0.87;;;15.90;99.90;;;;;;5014468;28;21002;-86
2023/08/09 01:58:35;;;;;;;1.23;0.73;;;16.00;99.90;;;;;;5014618;28;20451;-86
2023/08/09 02:01:01;;;;;;;3.70;1.00;;;16.00;99.90;;;;;;5014464;28;20454;-87
2023/08/09 02:03:28;;;;;;;0.50;0.50;;;16.00;99.90;;;;;;5014014;28;20436;-86
2023/08/09 02:05:55;;;;;;;0.50;0.50;;;15.90;99.90;;;;;;5014400;28;20456;-86
2023/08/09 02:08:22;;;;;;;0.70;0.60;;;16.00;99.90;;;;;;5014294;28;20447;-86
2023/08/09 02:10:49;;;;;;;0.70;0.70;;;15.90;99.90;;;;;;5014238;28;20447;-86
2023/08/09 02:13:15;;;;;;;1.90;1.13;;;16.00;99.90;;;;;;5013984;28;20490;-86
2023/08/09 02:15:43;;;;;;;1.37;1.17;;;16.00;99.90;;;;;;5013707;28;20996;-86
2023/08/09 02:18:10;;;;;;;0.63;0.63;;;16.00;99.90;;;;;;5014049;28;20448;-86
2023/08/09 02:20:37;;;;;;;0.70;0.60;;;16.00;99.90;;;;;;5013960;28;20447;-86
2023/08/09 02:23:05;;;;;;;1.17;0.67;;;16.10;99.90;;;;;;5013964;28;20439;-85
2023/08/09 02:25:32;;;;;;;0.90;0.90;;;16.10;99.90;;;;;;5013556;28;20460;-86
2023/08/09 02:27:58;;;;;;;1.10;1.00;;;16.10;99.90;;;;;;5013580;28;20451;-86
2023/08/09 02:30:25;;;;;;;2.63;0.60;;;16.10;99.90;;;;;;5013838;28;20459;-85
2023/08/09 02:32:53;;;;;;;0.80;0.80;;;16.10;99.90;;;;;;5013772;28;20534;-85
2023/08/09 02:35:20;;;;;;;0.97;0.70;;;16.10;99.90;;;;;;5013178;28;21015;-85
2023/08/09 02:37:47;;;;;;;0.93;0.50;;;16.10;99.90;;;;;;5013532;28;20432;-86
2023/08/09 02:40:14;;;;;;;0.57;0.53;;;16.10;99.90;;;;;;5013806;28;20444;-86
2023/08/09 02:42:40;;;;;;;1.23;0.73;;;16.10;99.90;;;;;;5013759;28;20443;-86
2023/08/09 02:45:08;;;;;;;1.30;0.70;;;16.10;99.90;;;;;;5013372;28;20862;-85
2023/08/09 02:47:36;;;;;;;0.90;0.70;;;16.10;99.90;;;;;;5013661;28;20454;-86
2023/08/09 02:50:06;;;;;;;2.93;0.70;;;16.00;99.90;;;;;;5013682;28;20447;-86
2023/08/09 02:52:33;;;;;;;0.90;0.50;;;16.00;99.90;;;;;;5013556;28;20493;-86
2023/08/09 02:54:59;;;;;;;0.70;0.70;;;16.00;99.90;;;;;;5013623;28;20476;-85
2023/08/09 02:57:26;;;;;;;1.50;0.70;;;16.00;99.90;;;;;;5013285;28;20836;-85
2023/08/09 02:59:53;;;;;;;1.43;0.50;;;16.00;99.90;;;;;;5013357;28;20432;-86
2023/08/09 03:02:20;;;;;;;0.70;0.57;;;15.90;99.90;;;;;;5013281;28;20446;-86
2023/08/09 03:04:47;;;;;;;0.60;0.60;;;15.90;99.90;;;;;;5013523;28;20558;-86
2023/08/09 03:07:16;;;;;;;1.83;0.83;;;15.90;99.90;;;;;;5013584;28;20824;-86
2023/08/09 03:09:43;;;;;;;0.60;0.57;;;15.90;99.90;;;;;;5013422;28;20475;-86
2023/08/09 03:12:10;;;;;;;0.80;0.60;;;15.90;99.90;;;;;;5013422;28;20451;-86
2023/08/09 03:14:37;;;;;;;0.70;0.60;;;15.90;99.90;;;;;;5013139;28;20456;-86
2023/08/09 03:17:04;;;;;;;0.70;0.70;;;15.90;99.90;;;;;;5013583;28;20455;-85
2023/08/09 03:19:31;;;;;;;2.07;0.60;;;15.90;99.90;;;;;;5013094;28;20451;-86
2023/08/09 03:21:57;;;;;;;1.90;0.70;;;15.90;99.90;;;;;;5013356;28;20462;-86
2023/08/09 03:24:26;;;;;;;0.60;0.60;;;15.90;99.90;;;;;;5013374;28;20464;-86
2023/08/09 03:26:52;;;;;;;2.67;0.60;;;15.90;99.90;;;;;;5013352;28;20450;-86
2023/08/09 03:29:19;;;;;;;0.73;0.57;;;15.80;99.90;;;;;;5013322;28;20444;-85
2023/08/09 03:31:46;;;;;;;0.63;0.63;;;15.90;99.90;;;;;;5013403;28;20447;-86
2023/08/09 03:34:13;;;;;;;0.70;0.60;;;15.90;99.90;;;;;;5016752;28;20495;-86
2023/08/09 03:36:40;;;;;;;0.70;0.70;;;15.80;99.90;;;;;;5016558;28;20541;-86
2023/08/09 03:39:07;;;;;;;0.80;0.80;;;15.90;99.90;;;;;;5016934;28;20502;-85
2023/08/09 03:41:35;;;;;;;1.77;0.70;;;15.90;99.90;;;;;;5016874;28;20457;-85
2023/08/09 03:44:01;;;;;;;1.27;0.77;;;15.90;99.90;;;;;;5016611;28;20459;-86
2023/08/09 03:46:28;;;;;;;0.70;0.70;;;15.80;99.90;;;;;;5016863;28;20450;-85
2023/08/09 03:48:55;;;;;;;1.00;0.60;;;15.80;99.90;;;;;;5016483;28;20804;-85
2023/08/09 03:51:22;;;;;;;1.93;0.70;;;15.80;99.90;;;;;;5016718;28;20454;-85
2023/08/09 03:53:48;;;;;;;1.27;0.83;;;15.80;99.90;;;;;;5016246;28;21031;-85
2023/08/09 03:56:15;;;;;;;1.00;0.90;;;15.80;99.90;;;;;;5016711;28;20443;-86
2023/08/09 03:58:43;;;;;;;0.70;0.50;;;15.80;99.90;;;;;;5016496;28;20542;-86
2023/08/09 04:01:11;;;;;;;1.20;1.00;;;15.80;99.90;;;;;;5016462;28;20459;-86
2023/08/09 04:03:38;;;;;;;2.57;0.80;;;15.80;99.90;;;;;;5016102;28;20447;-86
2023/08/09 04:06:05;;;;;;;0.70;0.70;;;15.80;99.90;;;;;;5016054;28;20451;-86
2023/08/09 04:08:33;;;;;;;1.43;0.70;;;15.90;99.90;;;;;;5016316;28;20436;-85
2023/08/09 04:11:00;;;;;;;0.90;0.60;;;15.80;99.90;;;;;;5016359;28;20459;-86
2023/08/09 04:13:27;;;;;;;0.57;0.50;;;15.90;99.90;;;;;;5016479;28;20881;-86
2023/08/09 04:15:56;;;;;;;1.23;0.80;;;15.90;99.90;;;;;;5016257;28;20454;-86
2023/08/09 04:18:22;;;;;;;0.80;0.60;;;15.90;99.90;;;;;;5016132;28;20452;-85
2023/08/09 04:20:50;;;;;;;0.80;0.60;;;15.90;99.90;;;;;;5016061;28;20444;-85
2023/08/09 04:23:17;;;;;;;1.07;0.90;;;15.90;99.90;;;;;;5016053;28;20444;-86
2023/08/09 04:25:44;;;;;;;0.70;0.67;;;15.90;99.90;;;;;;5015987;28;20589;-86
2023/08/09 04:28:11;;;;;;;0.60;0.50;;;15.90;99.90;;;;;;5016730;28;20867;-85
2023/08/09 04:30:38;;;;;;;1.30;0.77;;;15.90;99.90;;;;;;5015787;28;20882;-85
2023/08/09 04:33:07;;;;;;;0.80;0.70;;;15.90;99.90;;;;;;5015595;28;20554;-86
2023/08/09 04:35:34;;;;;;;0.57;0.50;;;15.90;99.90;;;;;;5015473;28;21083;-86
2023/08/09 04:38:03;;;;;;;1.17;0.80;;;15.90;99.90;;;;;;5015605;28;20436;-86
2023/08/09 04:40:30;;;;;;;2.10;0.97;;;15.80;99.90;;;;;;5015646;28;20451;-85
2023/08/09 04:42:57;;;;;;;1.30;0.90;;;15.80;99.90;;;;;;5015472;28;20450;-86
2023/08/09 04:45:24;;;;;;;0.90;0.90;;;15.90;99.90;;;;;;5014364;28;20841;-86
2023/08/09 04:47:52;;;;;;;3.30;0.67;;;15.90;99.90;;;;;;5015527;28;20454;-86
2023/08/09 04:50:21;;;;;;;11.63;0.83;;;15.90;99.90;;;;;;5015551;28;20452;-86
2023/08/09 04:52:48;;;;;;;1.23;0.90;;;15.90;99.90;;;;;;5015360;28;20505;-86
2023/08/09 04:55:15;;;;;;;0.97;0.70;;;15.90;99.90;;;;;;5015441;28;20962;-85
2023/08/09 04:57:42;;;;;;;7.90;1.03;;;15.90;99.90;;;;;;5015489;28;20948;-86
2023/08/09 05:00:10;;;;;;;1.57;0.60;;;15.90;99.90;;;;;;5015422;28;20451;-86
2023/08/09 05:02:37;;;;;;;0.77;0.77;;;15.80;99.90;;;;;;5015168;28;20436;-86
2023/08/09 05:05:04;;;;;;;1.67;1.00;;;15.90;99.90;;;;;;5015201;28;20467;-86
2023/08/09 05:07:33;;;;;;;2.53;0.53;;;15.80;99.90;;;;;;5015263;28;20443;-86
2023/08/09 05:10:01;;;;;;;0.67;0.67;;;15.80;99.90;;;;;;5015262;28;20453;-86
2023/08/09 05:12:27;;;;;;;0.70;0.63;;;15.80;99.90;;;;;;5014956;28;20944;-86
2023/08/09 05:14:54;;;;;;;2.10;1.23;;;15.70;99.90;;;;;;5015053;28;20495;-85
2023/08/09 05:17:21;;;;;;;1.13;0.83;;;15.70;99.90;;;;;;5014917;28;20450;-86
2023/08/09 05:19:48;;;;;;;2.30;1.13;;;15.70;99.90;;;;;;5015136;28;20454;-86
2023/08/09 05:22:14;;;;;;;0.50;0.47;;;15.70;99.90;;;;;;5014839;28;20470;-86
2023/08/09 05:24:43;;;;;;;1.03;0.80;;;15.70;99.90;;;;;;5015060;28;20468;-86
2023/08/09 05:27:09;;;;;;;0.70;0.70;;;15.70;99.90;;;;;;5014682;28;20978;-86
2023/08/09 05:29:36;;;;;;;0.60;0.60;;;15.80;99.90;;;;;;5014761;28;20435;-86
2023/08/09 05:32:03;;;;;;;0.73;0.60;;;15.80;99.90;;;;;;5014911;28;20436;-86
2023/08/09 05:34:30;;;;;;;0.60;0.60;;;15.80;99.90;;;;;;5014652;28;21047;-86
2023/08/09 05:36:57;;;;;;;0.80;0.50;;;15.90;99.90;;;;;;5014320;28;20479;-86
2023/08/09 05:39:24;;;;;;;1.07;0.70;;;15.90;99.90;;;;;;5014456;28;20502;-85
2023/08/09 05:41:52;;;;;;;0.73;0.73;;;15.90;99.90;;;;;;5014370;28;20447;-86
2023/08/09 05:44:18;;;;;;;0.70;0.50;;;16.00;99.90;;;;;;5014611;28;20459;-85
2023/08/09 05:46:45;;;;;;;1.00;1.00;;;16.00;99.90;;;;;;5014643;28;20447;-86
2023/08/09 05:49:12;;;;;;;0.70;0.60;;;16.00;99.90;;;;;;5014608;28;20459;-85
2023/08/09 05:51:39;;;;;;;0.87;0.63;;;16.00;99.90;;;;;;5014439;28;20459;-85
2023/08/09 05:54:05;;;;;;;0.57;0.57;;;16.10;99.90;;;;;;5014359;28;20491;-85
2023/08/09 05:56:32;;;;;;;0.53;0.53;;;16.10;99.90;;;;;;5013808;28;20436;-86
2023/08/09 05:59:00;;;;;;;0.70;0.63;;;16.10;99.90;;;;;;5014412;28;20444;-86
2023/08/09 06:01:28;;;;;;;4.03;1.57;;;16.20;99.90;;;;;;5014140;28;20804;-86
2023/08/09 06:03:56;;;;;;;0.70;0.50;;;16.20;99.90;;;;;;5014175;28;20547;-86
2023/08/09 06:06:23;;;;;;;0.60;0.60;;;16.30;99.90;;;;;;5014333;28;20803;-86
2023/08/09 06:08:50;;;;;;;0.87;0.77;;;16.40;99.90;;;;;;5014215;28;20497;-86
2023/08/09 06:11:17;;;;;;;0.63;0.60;;;16.40;99.90;;;;;;5014281;28;20953;-85
2023/08/09 06:13:44;;;;;;;0.63;0.50;;;16.30;99.90;;;;;;5013836;28;20944;-86
2023/08/09 06:16:12;;;;;;;0.97;0.50;;;16.40;99.90;;;;;;5014277;28;20452;-87
2023/08/09 06:18:39;;;;;;;2.03;0.70;;;16.40;99.90;;;;;;5014155;28;20447;-86
2023/08/09 06:21:06;;;;;;;0.60;0.60;;;16.40;99.90;;;;;;5013931;28;20454;-86
2023/08/09 06:23:33;;;;;;;0.80;0.60;;;16.50;99.90;;;;;;5014050;28;20943;-86
2023/08/09 06:25:59;;;;;;;0.50;0.40;;;16.60;99.90;;;;;;5013993;28;20440;-87
2023/08/09 06:28:26;;;;;;;0.50;0.50;;;16.60;99.90;;;;;;5013949;28;20821;-86
2023/08/09 06:30:53;;;;;;;0.70;0.60;;;16.60;99.90;;;;;;5013676;28;20964;-86
2023/08/09 06:33:21;;;;;;;0.63;0.53;;;16.60;99.90;;;;;;5013790;28;20459;-86
2023/08/09 06:35:48;;;;;;;1.10;0.50;;;16.70;99.90;;;;;;5013639;28;20483;-87
2023/08/09 06:38:15;;;;;;;0.50;0.43;;;16.70;99.90;;;;;;5014050;28;20451;-85
2023/08/09 06:40:42;;;;;;;2.83;0.73;;;16.70;99.90;;;;;;5014284;28;20450;-86
2023/08/09 06:43:08;;;;;;;0.50;0.50;;;16.70;99.90;;;;;;5013968;28;20443;-86
2023/08/09 06:45:35;;;;;;;0.80;0.80;;;16.80;99.90;;;;;;5013953;28;20467;-86
2023/08/09 06:48:02;;;;;;;5.50;0.70;;;16.80;99.90;;;;;;5013910;28;20452;-86
2023/08/09 06:50:30;;;;;;;0.60;0.60;;;16.90;99.90;;;;;;5013974;28;20447;-86
2023/08/09 06:52:57;;;;;;;1.00;0.60;;;16.80;99.90;;;;;;5013670;28;20458;-86
2023/08/09 06:55:24;;;;;;;0.60;0.50;;;16.80;99.90;;;;;;5013738;28;20537;-87
2023/08/09 06:57:51;;;;;;;0.80;0.63;;;16.90;99.90;;;;;;5013973;28;20538;-86
2023/08/09 07:00:18;;;;;;;1.00;0.90;;;16.90;99.90;;;;;;5013721;28;20453;-87
2023/08/09 07:02:46;;;;;;;0.50;0.50;;;17.10;99.90;;;;;;5013775;28;20831;-87
2023/08/09 07:05:18;;;;;;;0.50;0.50;;;17.20;99.90;;;;;;5013267;28;21054;-86
2023/08/09 07:07:48;;;;;;;0.57;0.47;;;17.30;99.90;;;;;;5014979;28;20534;-87
2023/08/09 07:10:16;;;;;;;0.80;0.80;;;17.40;99.90;;;;;;5017578;28;20440;-87
2023/08/09 07:12:44;;;;;;;0.70;0.70;;;17.50;99.90;;;;;;5017548;28;20450;-87
2023/08/09 07:15:11;;;;;;;4.83;0.70;;;17.50;99.90;;;;;;5017449;28;21011;-87
2023/08/09 07:17:39;;;;;;;0.60;0.60;;;17.60;99.90;;;;;;5017315;28;20451;-88
2023/08/09 07:20:09;;;;;;;6.20;0.60;;;17.60;99.90;;;;;;5017569;28;20447;-87
2023/08/09 07:22:36;;;;;;;1.10;0.77;;;17.60;99.90;;;;;;5017548;28;20443;-86
2023/08/09 07:25:04;;;;;;;0.80;0.50;;;17.70;99.90;;;;;;5017411;28;20464;-87
2023/08/09 07:27:32;;;;;;;1.77;0.57;;;17.80;99.90;;;;;;5017132;28;20436;-87
2023/08/09 07:29:59;;;;;;;0.83;0.60;;;17.80;99.90;;;;;;5017257;28;20495;-87
2023/08/09 07:32:26;;;;;;;0.80;0.77;;;17.80;99.90;;;;;;5016980;28;20999;-86
2023/08/09 07:34:53;;;;;;;0.60;0.60;;;17.70;99.90;;;;;;5016640;28;20980;-86
2023/08/09 07:37:20;;;;;;;0.80;0.50;;;17.70;99.90;;;;;;5017716;28;20765;-86
2023/08/09 07:39:47;;;;;;;1.47;1.30;;;17.70;99.90;;;;;;5017328;28;20436;-87
2023/08/09 07:42:15;;;;;;;0.90;0.60;;;17.60;99.90;;;;;;5016945;28;20782;-87
2023/08/09 07:44:41;;;;;;;2.20;0.67;;;17.60;99.90;;;;;;5016796;28;20463;-87
2023/08/09 07:47:08;;;;;;;0.80;0.60;;;17.70;99.90;;;;;;5016994;28;20450;-87
2023/08/09 07:49:35;;;;;;;1.33;0.63;;;17.70;99.90;;;;;;5016959;28;20473;-87
2023/08/09 07:52:01;;;;;;;0.83;0.50;;;17.80;99.90;;;;;;5017312;28;20555;-87
2023/08/09 07:54:28;;;;;;;2.70;0.67;;;17.80;99.90;;;;;;5016862;28;20490;-88
2023/08/09 07:56:55;;;;;;;2.10;0.50;;;17.90;99.90;;;;;;5017370;28;20447;-87
2023/08/09 07:59:23;;;;;;;0.80;0.60;;;17.90;99.90;;;;;;5016869;28;20827;-88
2023/08/09 08:01:50;;;;;;;0.77;0.50;;;18.00;99.90;;;;;;5016897;28;20945;-87
2023/08/09 08:04:17;;;;;;;0.80;0.80;;;18.00;99.90;;;;;;5016323;28;20463;-87
2023/08/09 08:06:45;;;;;;;0.80;0.80;;;18.10;99.90;;;;;;5016480;28;20443;-87
2023/08/09 08:09:12;;;;;;;0.93;0.80;;;18.10;99.90;;;;;;5016535;28;20452;-87
2023/08/09 08:11:39;;;;;;;1.47;0.60;;;18.20;99.90;;;;;;5016630;28;20456;-88
2023/08/09 08:14:06;;;;;;;4.97;0.80;;;18.30;99.90;;;;;;5016618;28;21031;-86
2023/08/09 08:16:34;;;;;;;1.20;0.70;;;18.40;99.90;;;;;;5016365;28;20825;-87
2023/08/09 08:19:01;;;;;;;0.60;0.60;;;18.50;99.90;;;;;;5016277;28;20546;-87
2023/08/09 08:21:28;;;;;;;1.10;0.67;;;18.40;99.90;;;;;;5016124;28;20490;-87
2023/08/09 08:23:56;;;;;;;0.53;0.50;;;18.40;99.90;;;;;;5015952;28;20529;-87
2023/08/09 08:26:23;;;;;;;0.60;0.60;;;18.50;99.90;;;;;;5016482;28;20455;-88
2023/08/09 08:28:50;;;;;;;0.73;0.70;;;18.70;99.90;;;;;;5016492;28;20443;-87
2023/08/09 08:31:19;;;;;;;0.93;0.53;;;18.80;99.90;;;;;;5016387;28;20452;-88
2023/08/09 08:33:49;;;;;;;0.73;0.60;;;19.00;99.90;;;;;;5015678;28;20507;-88
2023/08/09 08:36:16;;;;;;;0.60;0.57;;;19.20;99.90;;;;;;5015934;28;20476;-87
2023/08/09 08:38:43;;;;;;;0.70;0.67;;;19.30;99.90;;;;;;5016140;28;20455;-87
2023/08/09 08:41:11;;;;;;;0.50;0.50;;;19.30;99.90;;;;;;5016236;28;20436;-88
2023/08/09 08:43:37;;;;;;;0.60;0.53;;;19.30;99.90;;;;;;5015925;28;20444;-88
2023/08/09 08:46:05;;;;;;;2.63;0.93;;;19.40;99.90;;;;;;5015872;28;20436;-87
2023/08/09 08:48:33;;;;;;;1.37;0.80;;;19.30;99.90;;;;;;5016027;28;20443;-87
2023/08/09 08:51:04;;;;;;;0.60;0.60;;;19.30;99.90;;;;;;5016056;28;20822;-85
2023/08/09 08:53:32;;;;;;;1.40;0.80;;;19.20;99.90;;;;;;5015897;28;20496;-88
2023/08/09 08:55:59;;;;;;;0.93;0.93;;;19.20;99.90;;;;;;5015522;28;20852;-87
2023/08/09 08:58:26;;;;;;;1.80;0.70;;;19.20;99.90;;;;;;5015539;28;20455;-88
2023/08/09 09:00:52;;;;;;;1.10;0.80;;;19.10;99.90;;;;;;5015483;28;20447;-87
2023/08/09 09:03:19;;;;;;;0.80;0.70;;;19.10;99.90;;;;;;5015644;28;20467;-87
2023/08/09 09:05:46;;;;;;;0.70;0.70;;;19.10;99.90;;;;;;5015443;28;20459;-86
2023/08/09 09:08:15;;;;;;;0.60;0.60;;;19.10;99.90;;;;;;5015529;28;20459;-87
2023/08/09 09:10:44;;;;;;;0.77;0.70;;;19.20;99.90;;;;;;5015436;28;20443;-87
2023/08/09 09:13:23;;;;;;;0.60;0.60;;;19.20;99.90;;;;;;5015503;28;20448;-88
2023/08/09 09:15:52;;;;;;;0.80;0.63;;;19.30;99.90;;;;;;5015097;28;20483;-87
2023/08/09 09:18:20;;;;;;;1.10;0.80;;;19.40;99.90;;;;;;5015264;28;20497;-87
2023/08/09 09:20:48;;;;;;;3.90;1.03;;;19.30;99.90;;;;;;5015301;28;21015;-88
2023/08/09 09:23:27;;;;;;;0.87;0.63;;;19.40;99.90;;;;;;5015218;28;20526;-87
2023/08/09 09:26:02;;;;;;;0.70;0.70;;;19.30;99.90;;;;;;5015308;28;20462;-87
2023/08/09 09:28:29;;;;;;;2.13;1.00;;;19.20;99.90;;;;;;5015582;28;20420;-88
2023/08/09 09:30:59;;;;;;;0.60;0.60;;;19.20;99.90;;;;;;5014076;28;20432;-87
2023/08/09 09:33:33;;;;;;;0.80;0.60;;;19.10;99.90;;;;;;5015316;28;20454;-87
2023/08/09 09:36:00;;;;;;;1.80;0.50;;;19.20;99.90;;;;;;5014636;28;20548;-87
2023/08/09 09:38:29;;;;;;;0.70;0.70;;;19.10;99.90;;;;;;5015165;28;20818;-87
2023/08/09 09:40:57;;;;;;;0.60;0.60;;;19.10;99.90;;;;;;5015003;28;20937;-88
2023/08/09 09:43:23;;;;;;;0.60;0.60;;;19.20;99.90;;;;;;5014541;28;20952;-87
2023/08/09 09:45:54;;;;;;;0.50;0.50;;;19.30;99.90;;;;;;5014893;28;20468;-86
2023/08/09 09:48:21;;;;;;;2.20;0.63;;;19.30;99.90;;;;;;5014986;28;20489;-88
2023/08/09 09:50:49;;;;;;;1.63;0.57;;;19.40;99.90;;;;;;5014789;28;20440;-85
2023/08/09 09:53:16;;;;;;;0.63;0.63;;;19.50;99.90;;;;;;5014740;28;20455;-87
2023/08/09 09:55:46;;;;;;;1.93;0.90;;;19.40;99.90;;;;;;5014493;28;20483;-87
2023/08/09 09:58:13;;;;;;;0.73;0.60;;;19.50;99.90;;;;;;5014538;28;20984;-87
2023/08/09 10:00:43;;;;;;;0.80;0.77;;;19.40;99.90;;;;;;5014980;28;20522;-87
2023/08/09 10:03:13;;;;;;;1.07;0.70;;;19.30;99.90;;;;;;5014648;28;20443;-87
2023/08/09 10:05:44;;;;;;;0.80;0.60;;;19.30;99.90;;;;;;5014705;28;20467;-88
2023/08/09 10:08:12;;;;;;;1.67;0.77;;;19.20;99.90;;;;;;5014861;28;20423;-88
2023/08/09 10:10:41;;;;;;;0.60;0.60;;;19.10;99.90;;;;;;5014800;28;20451;-88
2023/08/09 10:13:09;;;;;;;0.70;0.70;;;19.00;99.90;;;;;;5014535;28;20454;-87
2023/08/09 10:15:40;;;;;;;0.90;0.60;;;19.00;99.90;;;;;;5014545;28;20533;-87
2023/08/09 10:18:11;;;;;;;0.80;0.80;;;19.00;99.90;;;;;;5015188;28;20448;-87
2023/08/09 10:20:39;;;;;;;1.13;0.70;;;19.00;99.90;;;;;;5014324;28;20435;-87
2023/08/09 10:23:06;;;;;;;0.90;0.60;;;19.00;99.90;;;;;;5014188;28;20432;-89
2023/08/09 10:25:43;;;;;;;0.80;0.80;;;19.00;99.90;;;;;;5014339;28;20470;-88
2023/08/09 10:28:11;;;;;;;0.70;0.70;;;19.10;99.90;;;;;;5014454;28;20509;-88
2023/08/09 10:30:46;;;;;;;0.80;0.80;;;19.20;99.90;;;;;;5014466;28;20821;-88
2023/08/09 10:33:18;;;;;;;0.50;0.50;;;19.30;99.90;;;;;;5014610;28;20435;-87
2023/08/09 10:35:47;;;;;;;1.53;0.77;;;19.20;99.90;;;;;;5014295;28;20892;-87
2023/08/09 10:38:15;;;;;;;1.37;1.00;;;19.20;99.90;;;;;;5014317;28;20470;-87
2023/08/09 10:40:43;;;;;;;0.70;0.70;;;19.30;99.90;;;;;;5014525;28;20913;-87
2023/08/09 10:43:18;;;;;;;0.80;0.77;;;19.20;99.90;;;;;;5014007;28;20436;-88
2023/08/09 10:45:45;;;;;;;0.90;0.67;;;19.30;99.90;;;;;;5014439;28;20473;-87
2023/08/09 10:48:22;;;;;;;0.60;0.60;;;19.30;99.90;;;;;;5014276;28;20439;-89
2023/08/09 10:51:03;;;;;;;0.70;0.70;;;19.30;99.90;;;;;;5014198;28;20821;-88
2023/08/09 10:53:29;;;;;;;0.77;0.77;;;19.50;99.90;;;;;;5013846;28;20420;-87
2023/08/09 10:55:58;;;;;;;0.50;0.50;;;19.50;99.90;;;;;;5014070;28;20471;-88
2023/08/09 10:58:29;;;;;;;4.40;1.10;;;19.60;99.90;;;;;;5014092;28;20444;-88
2023/08/09 11:00:56;;;;;;;0.90;0.90;;;19.80;99.90;;;;;;5014002;28;20428;-88
2023/08/09 11:03:23;;;;;;;0.80;0.70;;;19.80;99.90;;;;;;5014286;28;20446;-88
2023/08/09 11:05:52;;;;;;;2.77;0.97;;;19.80;99.90;;;;;;5013559;28;20985;-88
2023/08/09 11:08:19;;;;;;;0.60;0.60;;;20.00;99.90;;;;;;5013597;28;20443;-88
2023/08/09 11:10:48;;;;;;;2.20;0.90;;;20.20;99.90;;;;;;5013937;28;20455;-89
2023/08/09 11:13:18;;;;;;;0.77;0.77;;;20.20;99.90;;;;;;5013913;28;20478;-87
2023/08/09 11:15:47;;;;;;;0.60;0.60;;;20.30;99.90;;;;;;5013935;28;20475;-88
2023/08/09 11:18:14;;;;;;;0.80;0.57;;;20.40;99.90;;;;;;5014184;28;20432;-90
2023/08/09 11:20:40;;;;;;;0.70;0.70;;;20.50;99.90;;;;;;5013950;28;20443;-89
2023/08/09 11:23:07;;;;;;;0.70;0.60;;;20.50;99.90;;;;;;5013521;28;20462;-88
2023/08/09 11:25:35;;;;;;;0.90;0.80;;;20.50;99.90;;;;;;5013371;28;20971;-87
2023/08/09 11:28:04;;;;;;;1.07;0.50;;;20.50;99.90;;;;;;5013781;28;20455;-88
2023/08/09 11:30:32;;;;;;;1.67;1.10;;;20.70;99.90;;;;;;5013881;28;20812;-88
2023/08/09 11:33:03;;;;;;;2.40;1.00;;;20.70;99.90;;;;;;5013831;28;20443;-87
2023/08/09 11:35:39;;;;;;;1.20;1.07;;;20.90;99.90;;;;;;5013496;28;20503;-89
2023/08/09 11:38:09;;;;;;;1.13;0.60;;;21.00;99.90;;;;;;5013978;28;20441;-88
2023/08/09 11:40:40;;;;;;;0.70;0.57;;;21.10;99.90;;;;;;5014430;28;20439;-88
2023/08/09 11:43:11;;;;;;;4.03;0.80;;;21.20;99.90;;;;;;5013732;28;20438;-87
2023/08/09 11:45:44;;;;;;;1.13;0.90;;;21.30;99.90;;;;;;5013533;28;20466;-86
2023/08/09 11:48:27;;;;;;;0.67;0.67;;;21.50;99.90;;;;;;5013539;28;20427;-86
2023/08/09 11:51:07;;;;;;;1.07;0.70;;;21.60;99.90;;;;;;5013420;28;20422;-87
2023/08/09 11:53:37;;;;;;;0.60;0.60;;;21.70;99.90;;;;;;5014110;28;20415;-88
2023/08/09 11:56:05;;;;;;;0.57;0.57;;;21.70;99.90;;;;;;5016565;28;20485;-87
2023/08/09 11:58:34;;;;;;;0.97;0.70;;;21.80;99.90;;;;;;5016697;28;20426;-87
2023/08/09 12:01:12;;;;;;;0.50;0.50;;;22.00;99.90;;;;;;5016784;28;20443;-87
2023/08/09 12:03:41;;;;;;;1.10;0.60;;;22.20;99.90;;;;;;5016716;28;20431;-88
2023/08/09 12:06:08;;;;;;;0.70;0.70;;;22.20;99.90;;;;;;5016964;28;20196;-87
2023/08/09 12:08:36;;;;;;;0.60;0.50;;;22.10;99.90;;;;;;5016446;28;20958;-87
2023/08/09 12:11:03;;;;;;;0.73;0.63;;;22.10;99.90;;;;;;5016620;28;20461;-87
2023/08/09 12:13:30;;;;;;;0.80;0.60;;;22.10;99.90;;;;;;5016571;28;20450;-86
2023/08/09 12:15:57;;;;;;;1.03;0.60;;;22.10;99.90;;;;;;5016186;28;20660;-87
2023/08/09 12:18:23;;;;;;;0.80;0.80;;;22.20;99.90;;;;;;5016286;28;20956;-87
2023/08/09 12:20:52;;;;;;;0.50;0.50;;;22.20;99.90;;;;;;5016062;28;20678;-87
2023/08/09 12:23:18;;;;;;;0.70;0.70;;;22.20;99.90;;;;;;5016149;28;20929;-87
2023/08/09 12:25:45;;;;;;;0.63;0.63;;;22.00;99.90;;;;;;5016441;28;20455;-87
2023/08/09 12:28:12;;;;;;;1.20;0.67;;;21.80;99.90;;;;;;5017121;28;20538;-87
2023/08/09 12:30:39;;;;;;;0.47;0.47;;;21.70;99.90;;;;;;5016383;28;20443;-88
2023/08/09 12:33:09;;;;;;;0.73;0.60;;;21.60;99.90;;;;;;5016204;28;20458;-88
2023/08/09 12:35:36;;;;;;;0.60;0.60;;;21.70;99.90;;;;;;5015925;28;20522;-87
2023/08/09 12:38:04;;;;;;;0.60;0.60;;;21.80;99.90;;;;;;5015992;28;20442;-88
2023/08/09 12:40:31;;;;;;;0.50;0.50;;;21.90;99.90;;;;;;5016012;28;20438;-87
2023/08/09 12:42:58;;;;;;;0.93;0.63;;;22.00;99.90;;;;;;5015930;28;20576;-87
2023/08/09 12:45:25;;;;;;;0.70;0.50;;;22.00;99.90;;;;;;5015800;28;20462;-86
2023/08/09 12:47:51;;;;;;;0.50;0.50;;;22.00;99.90;;;;;;5015988;28;20446;-87
2023/08/09 12:50:19;;;;;;;0.60;0.60;;;22.10;99.90;;;;;;5015407;28;20431;-86